sensor_id;sensor_type;location;lat;lon;timestamp;pressure;altitude;pressure_sealevel;temperature;humidity
12913;BME280;6524;51.368;11.984;2023-01-31T00:03:33;100481.16;;;13.96;46.11
12913;BME280;6524;51.368;11.984;2023-01-31T00:08:34;100492.69;;;13.73;46.96
12913;BME280;6524;51.368;11.984;2023-01-31T00:13:34;100500.59;;;13.72;46.98
12913;BME280;6524;51.368;11.984;2023-01-31T00:18:35;100505.56;;;13.78;47.10
12913;BME280;6524;51.368;11.984;2023-01-31T00:23:38;100508.84;;;13.83;46.98
12913;BME280;6524;51.368;11.984;2023-01-31T00:28:39;100527.69;;;14.49;46.07
12913;BME280;6524;51.368;11.984;2023-01-31T00:33:42;100539.25;;;14.83;44.77
12913;BME280;6524;51.368;11.984;2023-01-31T00:38:43;100536.41;;;15.24;44.91
12913;BME280;6524;51.368;11.984;2023-01-31T00:43:46;100556.13;;;15.33;45.35
12913;BME280;6524;51.368;11.984;2023-01-31T00:48:47;100563.78;;;14.82;46.33
12913;BME280;6524;51.368;11.984;2023-01-31T00:53:48;100556.28;;;14.93;46.37
12913;BME280;6524;51.368;11.984;2023-01-31T00:58:49;100559.53;;;14.98;46.94
12913;BME280;6524;51.368;11.984;2023-01-31T05:01:03;100670.38;;;12.72;53.34
12913;BME280;6524;51.368;11.984;2023-01-31T05:06:03;100685.78;;;12.32;54.80
12913;BME280;6524;51.368;11.984;2023-01-31T05:11:04;100672.94;;;12.50;54.80
12913;BME280;6524;51.368;11.984;2023-01-31T05:16:07;100669.00;;;11.59;56.06
12913;BME280;6524;51.368;11.984;2023-01-31T05:21:09;100679.25;;;12.18;55.64
12913;BME280;6524;51.368;11.984;2023-01-31T05:26:10;100674.75;;;12.47;54.58
12913;BME280;6524;51.368;11.984;2023-01-31T05:31:10;100688.81;;;12.69;54.16
12913;BME280;6524;51.368;11.984;2023-01-31T05:36:12;100696.97;;;12.60;54.58
12913;BME280;6524;51.368;11.984;2023-01-31T05:41:13;100680.78;;;12.98;54.21
12913;BME280;6524;51.368;11.984;2023-01-31T05:46:16;100706.56;;;13.32;53.04
12913;BME280;6524;51.368;11.984;2023-01-31T05:51:17;100710.22;;;13.50;52.28
12913;BME280;6524;51.368;11.984;2023-01-31T05:56:17;100709.81;;;13.60;52.00
12913;BME280;6524;51.368;11.984;2023-01-31T06:01:26;100711.59;;;13.13;52.74
12913;BME280;6524;51.368;11.984;2023-01-31T06:06:26;100716.66;;;12.94;53.26
12913;BME280;6524;51.368;11.984;2023-01-31T06:11:26;100711.97;;;13.04;52.81
12913;BME280;6524;51.368;11.984;2023-01-31T06:16:27;100713.94;;;13.20;52.35
12913;BME280;6524;51.368;11.984;2023-01-31T06:21:27;100715.97;;;13.12;52.33
12913;BME280;6524;51.368;11.984;2023-01-31T06:26:28;100717.47;;;13.43;51.36
12913;BME280;6524;51.368;11.984;2023-01-31T06:31:28;100718.97;;;13.27;51.12
12913;BME280;6524;51.368;11.984;2023-01-31T06:36:31;100721.94;;;13.16;51.24
12913;BME280;6524;51.368;11.984;2023-01-31T06:41:33;100730.91;;;13.10;51.26
12913;BME280;6524;51.368;11.984;2023-01-31T06:46:33;100748.88;;;12.72;51.69
12913;BME280;6524;51.368;11.984;2023-01-31T06:51:34;100749.50;;;12.79;51.15
12913;BME280;6524;51.368;11.984;2023-01-31T06:56:34;100753.41;;;12.67;51.23
12913;BME280;6524;51.368;11.984;2023-01-31T07:01:35;100767.03;;;13.24;50.22
12913;BME280;6524;51.368;11.984;2023-01-31T07:06:35;100770.31;;;13.98;52.23
12913;BME280;6524;51.368;11.984;2023-01-31T07:11:36;100765.38;;;14.33;47.20
12913;BME280;6524;51.368;11.984;2023-01-31T07:16:37;100772.63;;;13.84;47.49
12913;BME280;6524;51.368;11.984;2023-01-31T07:21:37;100772.72;;;13.12;49.19
12913;BME280;6524;51.368;11.984;2023-01-31T07:26:38;100759.06;;;12.80;50.47
12913;BME280;6524;51.368;11.984;2023-01-31T07:31:38;100739.72;;;13.08;49.81
12913;BME280;6524;51.368;11.984;2023-01-31T07:36:39;100737.19;;;13.30;48.82
12913;BME280;6524;51.368;11.984;2023-01-31T07:41:39;100730.00;;;13.11;49.14
12913;BME280;6524;51.368;11.984;2023-01-31T07:46:40;100727.91;;;13.88;47.28
12913;BME280;6524;51.368;11.984;2023-01-31T07:51:41;100721.78;;;13.20;49.51
12913;BME280;6524;51.368;11.984;2023-01-31T07:56:42;100716.59;;;13.19;49.16
12913;BME280;6524;51.368;11.984;2023-01-31T08:01:42;100702.69;;;13.42;49.03
12913;BME280;6524;51.368;11.984;2023-01-31T08:07:02;100696.59;;;13.63;48.34
12913;BME280;6524;51.368;11.984;2023-01-31T08:12:05;100699.72;;;12.81;49.84
12913;BME280;6524;51.368;11.984;2023-01-31T08:17:07;100690.66;;;14.23;47.74
12913;BME280;6524;51.368;11.984;2023-01-31T08:22:08;100694.69;;;14.09;48.02
12913;BME280;6524;51.368;11.984;2023-01-31T08:27:08;100690.97;;;13.73;48.36
12913;BME280;6524;51.368;11.984;2023-01-31T08:32:09;100689.25;;;14.14;47.55
12913;BME280;6524;51.368;11.984;2023-01-31T08:37:09;100684.25;;;14.28;47.80
12913;BME280;6524;51.368;11.984;2023-01-31T08:42:09;100682.75;;;14.43;47.26
12913;BME280;6524;51.368;11.984;2023-01-31T08:47:10;100668.34;;;14.53;46.43
12913;BME280;6524;51.368;11.984;2023-01-31T08:52:10;100654.81;;;13.81;47.90
12913;BME280;6524;51.368;11.984;2023-01-31T08:57:10;100668.97;;;13.09;49.53
12913;BME280;6524;51.368;11.984;2023-01-31T09:02:11;100663.38;;;13.18;49.65
12913;BME280;6524;51.368;11.984;2023-01-31T09:07:11;100650.88;;;13.71;48.79
12913;BME280;6524;51.368;11.984;2023-01-31T09:12:12;100646.59;;;13.68;47.64
12913;BME280;6524;51.368;11.984;2023-01-31T09:17:12;100663.44;;;12.95;49.07
12913;BME280;6524;51.368;11.984;2023-01-31T09:22:13;100649.72;;;14.19;47.34
12913;BME280;6524;51.368;11.984;2023-01-31T09:27:14;100657.31;;;13.84;47.13
12913;BME280;6524;51.368;11.984;2023-01-31T09:32:15;100656.00;;;14.15;46.85
12913;BME280;6524;51.368;11.984;2023-01-31T09:37:22;100646.19;;;13.99;47.55
12913;BME280;6524;51.368;11.984;2023-01-31T09:42:27;100638.78;;;14.29;46.60
12913;BME280;6524;51.368;11.984;2023-01-31T09:47:43;100634.75;;;14.99;45.44
12913;BME280;6524;51.368;11.984;2023-01-31T09:52:47;100635.16;;;14.52;46.35
12913;BME280;6524;51.368;11.984;2023-01-31T09:58:01;100630.84;;;14.89;45.54
12913;BME280;6524;51.368;11.984;2023-01-31T10:14:12;100613.59;;;15.02;45.72
12913;BME280;6524;51.368;11.984;2023-01-31T10:19:31;100598.72;;;14.84;45.99
12913;BME280;6524;51.368;11.984;2023-01-31T10:25:03;100590.91;;;14.64;46.43
12913;BME280;6524;51.368;11.984;2023-01-31T10:30:17;100594.03;;;14.53;46.29
12913;BME280;6524;51.368;11.984;2023-01-31T10:35:27;100565.66;;;14.80;46.40
12913;BME280;6524;51.368;11.984;2023-01-31T10:46:51;100539.41;;;14.42;47.68
12913;BME280;6524;51.368;11.984;2023-01-31T10:57:42;100536.34;;;14.89;46.32
12913;BME280;6524;51.368;11.984;2023-01-31T11:02:50;100514.19;;;14.58;47.64
12913;BME280;6524;51.368;11.984;2023-01-31T11:08:02;100505.06;;;14.66;47.24
12913;BME280;6524;51.368;11.984;2023-01-31T11:13:17;100485.19;;;14.79;47.31
12913;BME280;6524;51.368;11.984;2023-01-31T11:18:34;100460.88;;;13.81;49.52
12913;BME280;6524;51.368;11.984;2023-01-31T11:23:47;100469.94;;;13.53;50.21
12913;BME280;6524;51.368;11.984;2023-01-31T11:29:20;100448.31;;;14.27;49.12
12913;BME280;6524;51.368;11.984;2023-01-31T11:34:30;100432.91;;;14.00;49.84
12913;BME280;6524;51.368;11.984;2023-01-31T12:48:41;100298.50;;;14.33;49.41
12913;BME280;6524;51.368;11.984;2023-01-31T12:53:56;100265.38;;;14.67;48.88
12913;BME280;6524;51.368;11.984;2023-01-31T13:04:52;100266.09;;;14.17;49.45
12913;BME280;6524;51.368;11.984;2023-01-31T13:09:58;100269.53;;;14.53;48.98
12913;BME280;6524;51.368;11.984;2023-01-31T13:15:26;100266.34;;;13.76;50.72
12913;BME280;6524;51.368;11.984;2023-01-31T13:20:33;100250.94;;;14.58;49.27
12913;BME280;6524;51.368;11.984;2023-01-31T13:25:54;100233.22;;;13.56;50.73
12913;BME280;6524;51.368;11.984;2023-01-31T13:30:59;100244.75;;;13.88;50.26
12913;BME280;6524;51.368;11.984;2023-01-31T13:41:04;100245.38;;;14.64;49.38
12913;BME280;6524;51.368;11.984;2023-01-31T13:46:08;100240.94;;;14.47;50.38
12913;BME280;6524;51.368;11.984;2023-01-31T13:51:29;100237.56;;;14.45;50.51
12913;BME280;6524;51.368;11.984;2023-01-31T13:56:34;100233.06;;;13.40;52.85
12913;BME280;6524;51.368;11.984;2023-01-31T14:01:43;100242.34;;;14.37;50.45
12913;BME280;6524;51.368;11.984;2023-01-31T14:22:32;100247.28;;;14.26;51.00
12913;BME280;6524;51.368;11.984;2023-01-31T14:37:57;100260.53;;;14.05;51.82
12913;BME280;6524;51.368;11.984;2023-01-31T14:43:09;100244.59;;;13.91;52.46
12913;BME280;6524;51.368;11.984;2023-01-31T14:48:31;100234.75;;;13.41;53.25
12913;BME280;6524;51.368;11.984;2023-01-31T14:58:57;100234.44;;;13.09;54.16
12913;BME280;6524;51.368;11.984;2023-01-31T15:03:58;100238.91;;;13.83;53.03
12913;BME280;6524;51.368;11.984;2023-01-31T15:14:41;100220.38;;;14.05;51.99
12913;BME280;6524;51.368;11.984;2023-01-31T15:19:51;100228.44;;;13.83;52.84
12913;BME280;6524;51.368;11.984;2023-01-31T15:24:54;100231.00;;;14.02;52.02
12913;BME280;6524;51.368;11.984;2023-01-31T15:35:21;100232.16;;;14.31;51.70
12913;BME280;6524;51.368;11.984;2023-01-31T15:40:24;100230.38;;;13.97;52.19
12913;BME280;6524;51.368;11.984;2023-01-31T15:45:28;100236.28;;;13.83;53.12
12913;BME280;6524;51.368;11.984;2023-01-31T15:50:32;100228.44;;;14.00;52.34
12913;BME280;6524;51.368;11.984;2023-01-31T15:55:36;100230.91;;;13.86;52.69
12913;BME280;6524;51.368;11.984;2023-01-31T16:00:37;100228.47;;;14.18;52.43
12913;BME280;6524;51.368;11.984;2023-01-31T16:05:38;100227.53;;;14.19;51.76
12913;BME280;6524;51.368;11.984;2023-01-31T16:10:39;100226.50;;;14.04;52.25
12913;BME280;6524;51.368;11.984;2023-01-31T16:15:41;100227.34;;;13.87;53.25
12913;BME280;6524;51.368;11.984;2023-01-31T16:20:50;100230.75;;;13.89;52.83
12913;BME280;6524;51.368;11.984;2023-01-31T16:25:55;100234.16;;;13.72;53.46
12913;BME280;6524;51.368;11.984;2023-01-31T16:31:05;100243.69;;;13.37;54.55
12913;BME280;6524;51.368;11.984;2023-01-31T16:36:11;100241.97;;;13.74;53.75
12913;BME280;6524;51.368;11.984;2023-01-31T16:41:12;100257.84;;;13.71;53.58
12913;BME280;6524;51.368;11.984;2023-01-31T16:46:35;100251.34;;;13.60;54.54
12913;BME280;6524;51.368;11.984;2023-01-31T16:51:40;100262.44;;;13.65;54.40
12913;BME280;6524;51.368;11.984;2023-01-31T16:56:45;100258.06;;;14.02;53.56
12913;BME280;6524;51.368;11.984;2023-01-31T17:01:54;100259.69;;;13.50;54.27
12913;BME280;6524;51.368;11.984;2023-01-31T17:07:04;100254.19;;;14.09;53.09
12913;BME280;6524;51.368;11.984;2023-01-31T17:12:05;100260.22;;;14.11;53.20
12913;BME280;6524;51.368;11.984;2023-01-31T17:17:05;100240.50;;;13.68;54.65
12913;BME280;6524;51.368;11.984;2023-01-31T17:22:06;100230.53;;;13.57;54.48
12913;BME280;6524;51.368;11.984;2023-01-31T17:27:11;100244.00;;;14.03;53.42
12913;BME280;6524;51.368;11.984;2023-01-31T17:32:17;100223.56;;;13.56;55.40
12913;BME280;6524;51.368;11.984;2023-01-31T17:37:18;100237.06;;;13.30;55.95
12913;BME280;6524;51.368;11.984;2023-01-31T17:42:19;100200.72;;;13.41;56.02
12913;BME280;6524;51.368;11.984;2023-01-31T17:47:20;100200.25;;;13.33;56.49
12913;BME280;6524;51.368;11.984;2023-01-31T17:52:23;100186.16;;;12.98;57.35
12913;BME280;6524;51.368;11.984;2023-01-31T17:57:24;100181.19;;;13.10;56.66
12913;BME280;6524;51.368;11.984;2023-01-31T18:02:24;100175.56;;;13.56;55.69
12913;BME280;6524;51.368;11.984;2023-01-31T18:07:24;100180.25;;;13.49;55.65
12913;BME280;6524;51.368;11.984;2023-01-31T18:12:25;100192.34;;;13.88;54.91
12913;BME280;6524;51.368;11.984;2023-01-31T18:17:26;100197.72;;;13.68;54.99
12913;BME280;6524;51.368;11.984;2023-01-31T18:22:27;100173.44;;;13.64;55.26
12913;BME280;6524;51.368;11.984;2023-01-31T18:27:27;100169.78;;;13.49;55.67
12913;BME280;6524;51.368;11.984;2023-01-31T18:32:28;100171.41;;;14.05;54.70
12913;BME280;6524;51.368;11.984;2023-01-31T18:37:28;100170.16;;;14.12;54.81
12913;BME280;6524;51.368;11.984;2023-01-31T18:42:29;100164.91;;;13.78;55.63
12913;BME280;6524;51.368;11.984;2023-01-31T18:47:29;100157.63;;;13.65;56.12
12913;BME280;6524;51.368;11.984;2023-01-31T18:52:30;100167.84;;;14.06;55.34
12913;BME280;6524;51.368;11.984;2023-01-31T18:57:30;100159.66;;;14.12;55.09
12913;BME280;6524;51.368;11.984;2023-01-31T19:02:30;100170.53;;;14.22;55.24
12913;BME280;6524;51.368;11.984;2023-01-31T19:07:31;100172.91;;;14.44;53.84
12913;BME280;6524;51.368;11.984;2023-01-31T19:12:31;100170.97;;;13.78;55.64
12913;BME280;6524;51.368;11.984;2023-01-31T19:17:32;100182.22;;;14.17;55.10
12913;BME280;6524;51.368;11.984;2023-01-31T19:22:32;100176.16;;;13.97;55.84
12913;BME280;6524;51.368;11.984;2023-01-31T19:27:33;100195.00;;;14.05;55.04
12913;BME280;6524;51.368;11.984;2023-01-31T19:32:34;100194.22;;;14.21;55.19
12913;BME280;6524;51.368;11.984;2023-01-31T19:37:34;100193.59;;;14.33;55.11
12913;BME280;6524;51.368;11.984;2023-01-31T19:42:34;100182.78;;;14.56;55.31
12913;BME280;6524;51.368;11.984;2023-01-31T19:47:36;100183.44;;;13.92;56.84
12913;BME280;6524;51.368;11.984;2023-01-31T19:52:36;100190.50;;;14.25;55.91
12913;BME280;6524;51.368;11.984;2023-01-31T19:57:37;100184.13;;;14.81;54.25
12913;BME280;6524;51.368;11.984;2023-01-31T20:02:39;100208.28;;;14.54;54.79
12913;BME280;6524;51.368;11.984;2023-01-31T20:07:42;100199.22;;;14.43;54.85
12913;BME280;6524;51.368;11.984;2023-01-31T20:12:42;100193.41;;;14.71;54.20
12913;BME280;6524;51.368;11.984;2023-01-31T20:17:44;100194.47;;;14.84;53.83
12913;BME280;6524;51.368;11.984;2023-01-31T20:22:45;100183.31;;;14.96;52.94
12913;BME280;6524;51.368;11.984;2023-01-31T20:27:45;100198.13;;;14.97;52.94
12913;BME280;6524;51.368;11.984;2023-01-31T20:32:45;100199.41;;;15.22;51.58
12913;BME280;6524;51.368;11.984;2023-01-31T20:37:49;100206.88;;;14.98;51.71
12913;BME280;6524;51.368;11.984;2023-01-31T20:42:50;100220.03;;;14.80;52.59
12913;BME280;6524;51.368;11.984;2023-01-31T20:47:51;100219.53;;;14.39;54.67
12913;BME280;6524;51.368;11.984;2023-01-31T20:52:53;100228.69;;;14.83;53.08
12913;BME280;6524;51.368;11.984;2023-01-31T20:57:54;100235.16;;;14.41;53.74
12913;BME280;6524;51.368;11.984;2023-01-31T21:02:55;100225.00;;;14.17;54.43
12913;BME280;6524;51.368;11.984;2023-01-31T21:07:56;100234.88;;;14.29;55.21
12913;BME280;6524;51.368;11.984;2023-01-31T21:12:56;100242.03;;;14.08;54.77
12913;BME280;6524;51.368;11.984;2023-01-31T21:17:57;100238.94;;;14.35;53.85
12913;BME280;6524;51.368;11.984;2023-01-31T21:22:58;100245.78;;;13.85;55.41
12913;BME280;6524;51.368;11.984;2023-01-31T21:27:58;100250.13;;;13.68;55.82
12913;BME280;6524;51.368;11.984;2023-01-31T21:32:59;100245.59;;;14.07;55.24
12913;BME280;6524;51.368;11.984;2023-01-31T21:37:59;100236.63;;;14.11;54.69
12913;BME280;6524;51.368;11.984;2023-01-31T21:43:00;100240.09;;;13.95;54.87
12913;BME280;6524;51.368;11.984;2023-01-31T21:48:00;100246.63;;;13.86;55.73
12913;BME280;6524;51.368;11.984;2023-01-31T21:53:19;100241.97;;;13.74;55.23
12913;BME280;6524;51.368;11.984;2023-01-31T21:58:20;100238.28;;;13.78;54.74
12913;BME280;6524;51.368;11.984;2023-01-31T22:03:20;100235.13;;;13.52;54.90
12913;BME280;6524;51.368;11.984;2023-01-31T22:08:21;100234.78;;;14.14;52.91
12913;BME280;6524;51.368;11.984;2023-01-31T22:13:21;100226.09;;;13.77;53.79
12913;BME280;6524;51.368;11.984;2023-01-31T22:18:21;100221.97;;;13.90;53.71
12913;BME280;6524;51.368;11.984;2023-01-31T22:23:22;100230.84;;;14.05;53.25
12913;BME280;6524;51.368;11.984;2023-01-31T22:28:22;100226.28;;;13.36;54.57
12913;BME280;6524;51.368;11.984;2023-01-31T22:33:23;100230.25;;;13.63;52.78
12913;BME280;6524;51.368;11.984;2023-01-31T22:38:24;100228.28;;;14.03;51.39
12913;BME280;6524;51.368;11.984;2023-01-31T22:43:26;100218.50;;;14.24;50.38
12913;BME280;6524;51.368;11.984;2023-01-31T22:48:26;100220.59;;;14.70;49.75
12913;BME280;6524;51.368;11.984;2023-01-31T22:53:30;100229.38;;;14.69;49.86
12913;BME280;6524;51.368;11.984;2023-01-31T22:58:31;100237.19;;;14.53;50.18
12913;BME280;6524;51.368;11.984;2023-01-31T23:03:31;100236.28;;;14.87;49.47
12913;BME280;6524;51.368;11.984;2023-01-31T23:08:32;100235.88;;;14.62;50.76
12913;BME280;6524;51.368;11.984;2023-01-31T23:13:33;100233.38;;;14.76;49.72
12913;BME280;6524;51.368;11.984;2023-01-31T23:18:34;100243.28;;;14.71;50.43
12913;BME280;6524;51.368;11.984;2023-01-31T23:23:34;100235.25;;;14.74;49.82
12913;BME280;6524;51.368;11.984;2023-01-31T23:28:35;100247.81;;;14.15;50.60
12913;BME280;6524;51.368;11.984;2023-01-31T23:33:35;100242.63;;;13.96;50.49
12913;BME280;6524;51.368;11.984;2023-01-31T23:38:36;100247.28;;;14.08;49.93
12913;BME280;6524;51.368;11.984;2023-01-31T23:43:36;100247.91;;;14.31;49.08
12913;BME280;6524;51.368;11.984;2023-01-31T23:48:37;100244.13;;;14.54;48.38
12913;BME280;6524;51.368;11.984;2023-01-31T23:53:38;100242.13;;;14.76;47.05
12913;BME280;6524;51.368;11.984;2023-01-31T23:58:38;100249.16;;;14.58;47.13
